sensor_id;sensor_type;location;lat;lon;timestamp;P1;durP1;ratioP1;P2;durP2;ratioP2
62543;SDS011;48597;49.030;1.822;2023-04-08T00:00:47;0.70;;;0.70;;
62543;SDS011;48597;49.030;1.822;2023-04-08T00:03:13;0.70;;;0.70;;
62543;SDS011;48597;49.030;1.822;2023-04-08T00:05:38;1.42;;;0.73;;
62543;SDS011;48597;49.030;1.822;2023-04-08T00:08:04;0.80;;;0.80;;
62543;SDS011;48597;49.030;1.822;2023-04-08T00:10:30;0.95;;;0.85;;
62543;SDS011;48597;49.030;1.822;2023-04-08T00:12:55;0.88;;;0.82;;
62543;SDS011;48597;49.030;1.822;2023-04-08T00:15:21;0.98;;;0.80;;
62543;SDS011;48597;49.030;1.822;2023-04-08T00:17:46;0.90;;;0.70;;
62543;SDS011;48597;49.030;1.822;2023-04-08T00:20:12;0.70;;;0.70;;
62543;SDS011;48597;49.030;1.822;2023-04-08T00:22:37;0.70;;;0.70;;
62543;SDS011;48597;49.030;1.822;2023-04-08T00:25:03;1.00;;;0.80;;
62543;SDS011;48597;49.030;1.822;2023-04-08T00:27:31;0.80;;;0.80;;
62543;SDS011;48597;49.030;1.822;2023-04-08T00:29:57;0.68;;;0.68;;
62543;SDS011;48597;49.030;1.822;2023-04-08T00:32:24;0.80;;;0.80;;
62543;SDS011;48597;49.030;1.822;2023-04-08T00:34:50;0.80;;;0.80;;
62543;SDS011;48597;49.030;1.822;2023-04-08T00:37:15;0.95;;;0.80;;
62543;SDS011;48597;49.030;1.822;2023-04-08T00:39:41;0.60;;;0.60;;
62543;SDS011;48597;49.030;1.822;2023-04-08T00:42:07;1.00;;;0.90;;
62543;SDS011;48597;49.030;1.822;2023-04-08T00:44:32;0.98;;;0.82;;
62543;SDS011;48597;49.030;1.822;2023-04-08T00:46:58;1.08;;;0.80;;
62543;SDS011;48597;49.030;1.822;2023-04-08T00:49:23;0.90;;;0.90;;
62543;SDS011;48597;49.030;1.822;2023-04-08T00:51:50;1.55;;;0.90;;
62543;SDS011;48597;49.030;1.822;2023-04-08T00:54:15;0.90;;;0.80;;
62543;SDS011;48597;49.030;1.822;2023-04-08T00:56:40;0.93;;;0.90;;
62543;SDS011;48597;49.030;1.822;2023-04-08T00:59:08;0.70;;;0.70;;
62543;SDS011;48597;49.030;1.822;2023-04-08T01:01:49;1.13;;;0.90;;
62543;SDS011;48597;49.030;1.822;2023-04-08T01:07:12;1.00;;;0.88;;
62543;SDS011;48597;49.030;1.822;2023-04-08T01:09:44;1.00;;;0.90;;
62543;SDS011;48597;49.030;1.822;2023-04-08T01:12:13;1.08;;;0.80;;
62543;SDS011;48597;49.030;1.822;2023-04-08T01:14:46;1.17;;;1.08;;
62543;SDS011;48597;49.030;1.822;2023-04-08T01:17:12;1.58;;;0.95;;
62543;SDS011;48597;49.030;1.822;2023-04-08T01:19:41;1.40;;;0.80;;
62543;SDS011;48597;49.030;1.822;2023-04-08T01:22:22;1.13;;;0.90;;
62543;SDS011;48597;49.030;1.822;2023-04-08T01:25:02;1.88;;;1.15;;
62543;SDS011;48597;49.030;1.822;2023-04-08T01:27:32;0.80;;;0.80;;
62543;SDS011;48597;49.030;1.822;2023-04-08T01:29:58;1.10;;;1.00;;
62543;SDS011;48597;49.030;1.822;2023-04-08T01:32:26;0.80;;;0.80;;
62543;SDS011;48597;49.030;1.822;2023-04-08T01:34:55;0.80;;;0.80;;
62543;SDS011;48597;49.030;1.822;2023-04-08T01:37:21;1.40;;;1.00;;
62543;SDS011;48597;49.030;1.822;2023-04-08T01:39:49;0.95;;;0.90;;
62543;SDS011;48597;49.030;1.822;2023-04-08T01:42:16;0.80;;;0.80;;
62543;SDS011;48597;49.030;1.822;2023-04-08T01:44:42;1.55;;;1.15;;
62543;SDS011;48597;49.030;1.822;2023-04-08T01:47:09;1.33;;;0.90;;
62543;SDS011;48597;49.030;1.822;2023-04-08T01:49:37;0.90;;;0.90;;
62543;SDS011;48597;49.030;1.822;2023-04-08T01:52:02;0.90;;;0.90;;
62543;SDS011;48597;49.030;1.822;2023-04-08T01:54:29;1.15;;;0.98;;
62543;SDS011;48597;49.030;1.822;2023-04-08T01:56:54;0.80;;;0.80;;
62543;SDS011;48597;49.030;1.822;2023-04-08T01:59:21;0.80;;;0.80;;
62543;SDS011;48597;49.030;1.822;2023-04-08T02:01:52;0.98;;;0.90;;
62543;SDS011;48597;49.030;1.822;2023-04-08T02:04:18;0.95;;;0.80;;
62543;SDS011;48597;49.030;1.822;2023-04-08T02:06:43;0.77;;;0.77;;
62543;SDS011;48597;49.030;1.822;2023-04-08T02:09:09;0.95;;;0.88;;
62543;SDS011;48597;49.030;1.822;2023-04-08T02:11:35;1.15;;;0.90;;
62543;SDS011;48597;49.030;1.822;2023-04-08T02:14:00;1.10;;;1.00;;
62543;SDS011;48597;49.030;1.822;2023-04-08T02:17:08;0.98;;;0.90;;
62543;SDS011;48597;49.030;1.822;2023-04-08T02:19:24;1.63;;;0.90;;
62543;SDS011;48597;49.030;1.822;2023-04-08T02:22:09;1.17;;;0.98;;
62543;SDS011;48597;49.030;1.822;2023-04-08T02:24:41;0.90;;;0.90;;
62543;SDS011;48597;49.030;1.822;2023-04-08T02:27:08;0.80;;;0.80;;
62543;SDS011;48597;49.030;1.822;2023-04-08T02:29:35;1.02;;;0.90;;
62543;SDS011;48597;49.030;1.822;2023-04-08T02:32:02;2.72;;;0.90;;
62543;SDS011;48597;49.030;1.822;2023-04-08T02:34:30;1.02;;;0.90;;
62543;SDS011;48597;49.030;1.822;2023-04-08T02:36:56;1.02;;;0.93;;
62543;SDS011;48597;49.030;1.822;2023-04-08T02:39:29;0.95;;;0.90;;
62543;SDS011;48597;49.030;1.822;2023-04-08T02:41:56;1.38;;;0.93;;
62543;SDS011;48597;49.030;1.822;2023-04-08T02:44:22;1.20;;;1.00;;
62543;SDS011;48597;49.030;1.822;2023-04-08T02:46:47;1.00;;;0.90;;
62543;SDS011;48597;49.030;1.822;2023-04-08T02:49:13;1.13;;;0.90;;
62543;SDS011;48597;49.030;1.822;2023-04-08T02:51:38;1.17;;;1.00;;
62543;SDS011;48597;49.030;1.822;2023-04-08T02:54:04;0.80;;;0.80;;
62543;SDS011;48597;49.030;1.822;2023-04-08T02:56:29;0.80;;;0.80;;
62543;SDS011;48597;49.030;1.822;2023-04-08T02:58:55;1.00;;;0.90;;
62543;SDS011;48597;49.030;1.822;2023-04-08T03:01:20;0.98;;;0.90;;
62543;SDS011;48597;49.030;1.822;2023-04-08T03:03:46;1.00;;;0.90;;
62543;SDS011;48597;49.030;1.822;2023-04-08T03:06:11;1.20;;;0.80;;
62543;SDS011;48597;49.030;1.822;2023-04-08T03:08:36;0.85;;;0.85;;
62543;SDS011;48597;49.030;1.822;2023-04-08T03:11:02;1.48;;;0.90;;
62543;SDS011;48597;49.030;1.822;2023-04-08T03:13:27;1.40;;;0.80;;
62543;SDS011;48597;49.030;1.822;2023-04-08T03:15:53;0.98;;;0.90;;
62543;SDS011;48597;49.030;1.822;2023-04-08T03:18:19;1.10;;;0.80;;
62543;SDS011;48597;49.030;1.822;2023-04-08T03:20:45;1.20;;;0.80;;
62543;SDS011;48597;49.030;1.822;2023-04-08T03:23:11;0.90;;;0.90;;
62543;SDS011;48597;49.030;1.822;2023-04-08T03:25:36;1.05;;;0.93;;
62543;SDS011;48597;49.030;1.822;2023-04-08T03:28:01;1.10;;;0.80;;
62543;SDS011;48597;49.030;1.822;2023-04-08T03:30:27;0.80;;;0.80;;
62543;SDS011;48597;49.030;1.822;2023-04-08T03:32:52;1.50;;;1.15;;
62543;SDS011;48597;49.030;1.822;2023-04-08T03:35:18;1.42;;;0.80;;
62543;SDS011;48597;49.030;1.822;2023-04-08T03:37:43;0.90;;;0.80;;
62543;SDS011;48597;49.030;1.822;2023-04-08T03:40:08;1.00;;;0.90;;
62543;SDS011;48597;49.030;1.822;2023-04-08T03:42:35;1.65;;;0.90;;
62543;SDS011;48597;49.030;1.822;2023-04-08T03:45:00;0.70;;;0.70;;
62543;SDS011;48597;49.030;1.822;2023-04-08T03:47:26;0.70;;;0.70;;
62543;SDS011;48597;49.030;1.822;2023-04-08T03:49:52;1.15;;;0.82;;
62543;SDS011;48597;49.030;1.822;2023-04-08T03:52:18;1.13;;;0.80;;
62543;SDS011;48597;49.030;1.822;2023-04-08T03:54:44;0.68;;;0.68;;
62543;SDS011;48597;49.030;1.822;2023-04-08T03:57:09;1.15;;;0.90;;
62543;SDS011;48597;49.030;1.822;2023-04-08T03:59:36;1.80;;;0.77;;
62543;SDS011;48597;49.030;1.822;2023-04-08T04:02:03;1.00;;;0.90;;
62543;SDS011;48597;49.030;1.822;2023-04-08T04:04:29;0.80;;;0.80;;
62543;SDS011;48597;49.030;1.822;2023-04-08T04:06:55;0.70;;;0.70;;
62543;SDS011;48597;49.030;1.822;2023-04-08T04:09:20;0.75;;;0.75;;
62543;SDS011;48597;49.030;1.822;2023-04-08T04:11:46;0.85;;;0.75;;
62543;SDS011;48597;49.030;1.822;2023-04-08T04:14:11;0.70;;;0.70;;
62543;SDS011;48597;49.030;1.822;2023-04-08T04:16:36;0.98;;;0.88;;
62543;SDS011;48597;49.030;1.822;2023-04-08T04:19:02;1.63;;;0.80;;
62543;SDS011;48597;49.030;1.822;2023-04-08T04:21:27;0.70;;;0.70;;
62543;SDS011;48597;49.030;1.822;2023-04-08T04:23:53;1.10;;;0.80;;
62543;SDS011;48597;49.030;1.822;2023-04-08T04:26:19;0.70;;;0.70;;
62543;SDS011;48597;49.030;1.822;2023-04-08T04:28:45;0.75;;;0.70;;
62543;SDS011;48597;49.030;1.822;2023-04-08T04:31:17;0.75;;;0.73;;
62543;SDS011;48597;49.030;1.822;2023-04-08T04:33:43;1.42;;;0.80;;
62543;SDS011;48597;49.030;1.822;2023-04-08T04:36:09;0.70;;;0.70;;
62543;SDS011;48597;49.030;1.822;2023-04-08T04:38:34;0.70;;;0.70;;
62543;SDS011;48597;49.030;1.822;2023-04-08T04:41:01;0.95;;;0.88;;
62543;SDS011;48597;49.030;1.822;2023-04-08T04:43:26;0.88;;;0.70;;
62543;SDS011;48597;49.030;1.822;2023-04-08T04:45:51;0.68;;;0.68;;
62543;SDS011;48597;49.030;1.822;2023-04-08T04:48:17;1.05;;;0.80;;
62543;SDS011;48597;49.030;1.822;2023-04-08T04:50:42;0.80;;;0.80;;
62543;SDS011;48597;49.030;1.822;2023-04-08T04:53:07;0.80;;;0.80;;
62543;SDS011;48597;49.030;1.822;2023-04-08T04:55:33;0.80;;;0.80;;
62543;SDS011;48597;49.030;1.822;2023-04-08T04:57:58;0.88;;;0.82;;
62543;SDS011;48597;49.030;1.822;2023-04-08T05:00:24;0.82;;;0.82;;
62543;SDS011;48597;49.030;1.822;2023-04-08T05:02:49;0.68;;;0.68;;
62543;SDS011;48597;49.030;1.822;2023-04-08T05:05:15;0.68;;;0.68;;
62543;SDS011;48597;49.030;1.822;2023-04-08T05:07:40;0.70;;;0.70;;
62543;SDS011;48597;49.030;1.822;2023-04-08T05:10:06;0.95;;;0.80;;
62543;SDS011;48597;49.030;1.822;2023-04-08T05:12:31;0.90;;;0.90;;
62543;SDS011;48597;49.030;1.822;2023-04-08T05:14:57;0.85;;;0.85;;
62543;SDS011;48597;49.030;1.822;2023-04-08T05:17:26;0.88;;;0.80;;
62543;SDS011;48597;49.030;1.822;2023-04-08T05:19:51;0.93;;;0.63;;
62543;SDS011;48597;49.030;1.822;2023-04-08T05:22:17;0.75;;;0.75;;
62543;SDS011;48597;49.030;1.822;2023-04-08T05:24:43;0.68;;;0.68;;
62543;SDS011;48597;49.030;1.822;2023-04-08T05:27:08;0.80;;;0.80;;
62543;SDS011;48597;49.030;1.822;2023-04-08T05:29:33;0.75;;;0.75;;
62543;SDS011;48597;49.030;1.822;2023-04-08T05:31:59;1.55;;;0.80;;
62543;SDS011;48597;49.030;1.822;2023-04-08T05:34:25;0.77;;;0.77;;
62543;SDS011;48597;49.030;1.822;2023-04-08T05:36:50;0.75;;;0.75;;
62543;SDS011;48597;49.030;1.822;2023-04-08T05:39:16;0.93;;;0.90;;
62543;SDS011;48597;49.030;1.822;2023-04-08T05:41:42;0.80;;;0.80;;
62543;SDS011;48597;49.030;1.822;2023-04-08T05:44:08;0.70;;;0.70;;
62543;SDS011;48597;49.030;1.822;2023-04-08T05:46:34;1.00;;;0.70;;
62543;SDS011;48597;49.030;1.822;2023-04-08T05:48:59;0.73;;;0.70;;
62543;SDS011;48597;49.030;1.822;2023-04-08T05:51:25;0.88;;;0.80;;
62543;SDS011;48597;49.030;1.822;2023-04-08T05:53:50;1.13;;;1.00;;
62543;SDS011;48597;49.030;1.822;2023-04-08T05:56:16;0.70;;;0.70;;
62543;SDS011;48597;49.030;1.822;2023-04-08T05:58:41;0.70;;;0.70;;
62543;SDS011;48597;49.030;1.822;2023-04-08T06:01:07;2.45;;;0.90;;
62543;SDS011;48597;49.030;1.822;2023-04-08T06:03:32;0.70;;;0.70;;
62543;SDS011;48597;49.030;1.822;2023-04-08T06:05:57;0.82;;;0.80;;
62543;SDS011;48597;49.030;1.822;2023-04-08T06:08:23;1.27;;;0.90;;
62543;SDS011;48597;49.030;1.822;2023-04-08T06:10:49;0.68;;;0.68;;
62543;SDS011;48597;49.030;1.822;2023-04-08T06:13:15;1.42;;;0.85;;
62543;SDS011;48597;49.030;1.822;2023-04-08T06:15:41;1.00;;;0.90;;
62543;SDS011;48597;49.030;1.822;2023-04-08T06:18:06;0.70;;;0.70;;
62543;SDS011;48597;49.030;1.822;2023-04-08T06:20:31;0.80;;;0.80;;
62543;SDS011;48597;49.030;1.822;2023-04-08T06:22:57;1.00;;;0.90;;
62543;SDS011;48597;49.030;1.822;2023-04-08T06:25:22;1.20;;;1.00;;
62543;SDS011;48597;49.030;1.822;2023-04-08T06:27:48;1.00;;;0.90;;
62543;SDS011;48597;49.030;1.822;2023-04-08T06:30:14;0.90;;;0.90;;
62543;SDS011;48597;49.030;1.822;2023-04-08T06:32:40;1.73;;;0.80;;
62543;SDS011;48597;49.030;1.822;2023-04-08T06:35:06;0.88;;;0.88;;
62543;SDS011;48597;49.030;1.822;2023-04-08T06:37:32;0.70;;;0.70;;
62543;SDS011;48597;49.030;1.822;2023-04-08T06:39:58;0.80;;;0.80;;
62543;SDS011;48597;49.030;1.822;2023-04-08T06:42:23;1.15;;;1.00;;
62543;SDS011;48597;49.030;1.822;2023-04-08T06:44:48;1.27;;;1.00;;
62543;SDS011;48597;49.030;1.822;2023-04-08T06:47:14;0.85;;;0.80;;
62543;SDS011;48597;49.030;1.822;2023-04-08T06:49:41;0.95;;;0.90;;
62543;SDS011;48597;49.030;1.822;2023-04-08T06:52:06;1.13;;;0.95;;
62543;SDS011;48597;49.030;1.822;2023-04-08T06:54:32;0.80;;;0.80;;
62543;SDS011;48597;49.030;1.822;2023-04-08T06:56:57;0.70;;;0.70;;
62543;SDS011;48597;49.030;1.822;2023-04-08T06:59:22;1.20;;;1.10;;
62543;SDS011;48597;49.030;1.822;2023-04-08T07:01:48;1.00;;;0.90;;
62543;SDS011;48597;49.030;1.822;2023-04-08T07:04:13;1.33;;;1.00;;
62543;SDS011;48597;49.030;1.822;2023-04-08T07:06:39;1.17;;;1.10;;
62543;SDS011;48597;49.030;1.822;2023-04-08T07:09:04;1.25;;;0.90;;
62543;SDS011;48597;49.030;1.822;2023-04-08T07:11:30;0.82;;;0.82;;
62543;SDS011;48597;49.030;1.822;2023-04-08T07:13:55;1.20;;;1.10;;
62543;SDS011;48597;49.030;1.822;2023-04-08T07:16:21;0.90;;;0.90;;
62543;SDS011;48597;49.030;1.822;2023-04-08T07:18:46;2.35;;;1.23;;
62543;SDS011;48597;49.030;1.822;2023-04-08T07:21:12;0.90;;;0.90;;
62543;SDS011;48597;49.030;1.822;2023-04-08T07:23:38;1.15;;;0.90;;
62543;SDS011;48597;49.030;1.822;2023-04-08T07:26:03;1.15;;;1.00;;
62543;SDS011;48597;49.030;1.822;2023-04-08T07:28:29;0.90;;;0.90;;
62543;SDS011;48597;49.030;1.822;2023-04-08T07:30:55;1.02;;;0.93;;
62543;SDS011;48597;49.030;1.822;2023-04-08T07:33:21;0.90;;;0.90;;
62543;SDS011;48597;49.030;1.822;2023-04-08T07:35:47;1.30;;;0.88;;
62543;SDS011;48597;49.030;1.822;2023-04-08T07:38:13;1.13;;;1.02;;
62543;SDS011;48597;49.030;1.822;2023-04-08T07:40:38;1.08;;;0.90;;
62543;SDS011;48597;49.030;1.822;2023-04-08T07:43:04;0.93;;;0.93;;
62543;SDS011;48597;49.030;1.822;2023-04-08T07:45:29;0.80;;;0.75;;
62543;SDS011;48597;49.030;1.822;2023-04-08T07:47:55;1.42;;;0.90;;
62543;SDS011;48597;49.030;1.822;2023-04-08T07:50:20;1.40;;;0.90;;
62543;SDS011;48597;49.030;1.822;2023-04-08T07:52:46;1.08;;;0.90;;
62543;SDS011;48597;49.030;1.822;2023-04-08T07:55:12;1.02;;;0.85;;
62543;SDS011;48597;49.030;1.822;2023-04-08T07:57:37;2.35;;;0.90;;
62543;SDS011;48597;49.030;1.822;2023-04-08T08:00:03;0.88;;;0.82;;
62543;SDS011;48597;49.030;1.822;2023-04-08T08:02:29;1.00;;;0.90;;
62543;SDS011;48597;49.030;1.822;2023-04-08T08:04:54;1.00;;;0.90;;
62543;SDS011;48597;49.030;1.822;2023-04-08T08:07:20;1.10;;;1.00;;
62543;SDS011;48597;49.030;1.822;2023-04-08T08:09:45;1.35;;;0.95;;
62543;SDS011;48597;49.030;1.822;2023-04-08T08:12:10;1.27;;;0.90;;
62543;SDS011;48597;49.030;1.822;2023-04-08T08:14:36;1.60;;;1.00;;
62543;SDS011;48597;49.030;1.822;2023-04-08T08:17:02;1.30;;;1.00;;
62543;SDS011;48597;49.030;1.822;2023-04-08T08:19:28;1.50;;;1.00;;
62543;SDS011;48597;49.030;1.822;2023-04-08T08:21:53;1.05;;;0.82;;
62543;SDS011;48597;49.030;1.822;2023-04-08T08:24:20;1.02;;;0.93;;
62543;SDS011;48597;49.030;1.822;2023-04-08T08:26:45;1.20;;;1.15;;
62543;SDS011;48597;49.030;1.822;2023-04-08T08:29:13;1.15;;;0.80;;
62543;SDS011;48597;49.030;1.822;2023-04-08T08:31:38;1.50;;;0.88;;
62543;SDS011;48597;49.030;1.822;2023-04-08T08:34:04;1.67;;;1.00;;
62543;SDS011;48597;49.030;1.822;2023-04-08T08:36:29;1.08;;;0.90;;
62543;SDS011;48597;49.030;1.822;2023-04-08T08:38:55;1.70;;;1.17;;
62543;SDS011;48597;49.030;1.822;2023-04-08T08:41:20;1.75;;;1.13;;
62543;SDS011;48597;49.030;1.822;2023-04-08T08:43:46;1.10;;;1.10;;
62543;SDS011;48597;49.030;1.822;2023-04-08T08:46:11;2.85;;;1.08;;
62543;SDS011;48597;49.030;1.822;2023-04-08T08:48:41;2.38;;;1.20;;
62543;SDS011;48597;49.030;1.822;2023-04-08T08:51:09;1.17;;;1.08;;
62543;SDS011;48597;49.030;1.822;2023-04-08T08:53:36;1.05;;;1.00;;
62543;SDS011;48597;49.030;1.822;2023-04-08T08:56:01;1.20;;;1.10;;
62543;SDS011;48597;49.030;1.822;2023-04-08T08:58:27;1.25;;;0.90;;
62543;SDS011;48597;49.030;1.822;2023-04-08T09:00:53;2.78;;;1.15;;
62543;SDS011;48597;49.030;1.822;2023-04-08T09:03:25;1.52;;;1.02;;
62543;SDS011;48597;49.030;1.822;2023-04-08T09:05:53;3.10;;;1.20;;
62543;SDS011;48597;49.030;1.822;2023-04-08T09:08:25;1.25;;;0.90;;
62543;SDS011;48597;49.030;1.822;2023-04-08T09:13:43;1.67;;;1.00;;
62543;SDS011;48597;49.030;1.822;2023-04-08T09:16:11;2.17;;;1.20;;
62543;SDS011;48597;49.030;1.822;2023-04-08T09:18:39;2.63;;;1.30;;
62543;SDS011;48597;49.030;1.822;2023-04-08T09:21:08;3.13;;;1.30;;
62543;SDS011;48597;49.030;1.822;2023-04-08T09:23:51;1.42;;;1.30;;
62543;SDS011;48597;49.030;1.822;2023-04-08T09:26:17;1.30;;;1.20;;
62543;SDS011;48597;49.030;1.822;2023-04-08T09:28:56;1.85;;;0.98;;
62543;SDS011;48597;49.030;1.822;2023-04-08T09:31:29;2.10;;;1.10;;
62543;SDS011;48597;49.030;1.822;2023-04-08T09:34:08;1.88;;;1.00;;
62543;SDS011;48597;49.030;1.822;2023-04-08T09:36:36;1.52;;;1.02;;
62543;SDS011;48597;49.030;1.822;2023-04-08T09:39:02;1.67;;;1.30;;
62543;SDS011;48597;49.030;1.822;2023-04-08T09:41:29;1.55;;;1.15;;
62543;SDS011;48597;49.030;1.822;2023-04-08T09:43:58;1.00;;;0.90;;
62543;SDS011;48597;49.030;1.822;2023-04-08T09:49:11;2.42;;;1.40;;
62543;SDS011;48597;49.030;1.822;2023-04-08T09:54:25;2.10;;;1.40;;
62543;SDS011;48597;49.030;1.822;2023-04-08T09:57:00;1.75;;;1.30;;
62543;SDS011;48597;49.030;1.822;2023-04-08T09:59:33;1.92;;;1.30;;
62543;SDS011;48597;49.030;1.822;2023-04-08T10:02:04;1.25;;;1.13;;
62543;SDS011;48597;49.030;1.822;2023-04-08T10:04:34;2.70;;;1.20;;
62543;SDS011;48597;49.030;1.822;2023-04-08T10:07:03;2.45;;;1.27;;
62543;SDS011;48597;49.030;1.822;2023-04-08T10:09:31;2.47;;;1.33;;
62543;SDS011;48597;49.030;1.822;2023-04-08T10:11:57;1.77;;;1.13;;
62543;SDS011;48597;49.030;1.822;2023-04-08T10:14:23;1.88;;;1.20;;
62543;SDS011;48597;49.030;1.822;2023-04-08T10:17:11;2.40;;;1.48;;
62543;SDS011;48597;49.030;1.822;2023-04-08T10:19:51;3.38;;;1.50;;
62543;SDS011;48597;49.030;1.822;2023-04-08T10:27:42;1.88;;;1.48;;
62543;SDS011;48597;49.030;1.822;2023-04-08T10:32:52;2.22;;;1.83;;
62543;SDS011;48597;49.030;1.822;2023-04-08T10:37:56;2.05;;;1.77;;
62543;SDS011;48597;49.030;1.822;2023-04-08T10:40:22;2.03;;;1.58;;
62543;SDS011;48597;49.030;1.822;2023-04-08T10:42:58;4.82;;;1.50;;
62543;SDS011;48597;49.030;1.822;2023-04-08T10:45:23;3.28;;;1.42;;
62543;SDS011;48597;49.030;1.822;2023-04-08T10:47:49;2.95;;;1.40;;
62543;SDS011;48597;49.030;1.822;2023-04-08T10:50:16;2.17;;;1.80;;
62543;SDS011;48597;49.030;1.822;2023-04-08T10:52:49;1.38;;;1.20;;
62543;SDS011;48597;49.030;1.822;2023-04-08T10:55:27;1.63;;;1.52;;
62543;SDS011;48597;49.030;1.822;2023-04-08T10:57:53;2.30;;;1.50;;
62543;SDS011;48597;49.030;1.822;2023-04-08T11:00:19;3.58;;;1.52;;
62543;SDS011;48597;49.030;1.822;2023-04-08T11:03:00;2.38;;;1.60;;
62543;SDS011;48597;49.030;1.822;2023-04-08T11:05:27;1.90;;;1.60;;
62543;SDS011;48597;49.030;1.822;2023-04-08T11:07:52;2.05;;;1.52;;
62543;SDS011;48597;49.030;1.822;2023-04-08T11:10:18;2.83;;;1.42;;
62543;SDS011;48597;49.030;1.822;2023-04-08T11:12:44;3.50;;;1.80;;
62543;SDS011;48597;49.030;1.822;2023-04-08T11:15:11;1.70;;;1.50;;
62543;SDS011;48597;49.030;1.822;2023-04-08T11:17:37;4.60;;;1.60;;
62543;SDS011;48597;49.030;1.822;2023-04-08T11:20:03;3.58;;;1.92;;
62543;SDS011;48597;49.030;1.822;2023-04-08T11:22:30;2.05;;;1.55;;
62543;SDS011;48597;49.030;1.822;2023-04-08T11:24:58;2.45;;;1.60;;
62543;SDS011;48597;49.030;1.822;2023-04-08T11:27:25;3.95;;;1.70;;
62543;SDS011;48597;49.030;1.822;2023-04-08T11:29:54;2.22;;;1.60;;
62543;SDS011;48597;49.030;1.822;2023-04-08T11:32:21;2.75;;;1.50;;
62543;SDS011;48597;49.030;1.822;2023-04-08T11:34:47;3.75;;;1.58;;
62543;SDS011;48597;49.030;1.822;2023-04-08T11:37:14;2.33;;;1.65;;
62543;SDS011;48597;49.030;1.822;2023-04-08T11:39:41;1.90;;;1.60;;
62543;SDS011;48597;49.030;1.822;2023-04-08T11:42:07;3.53;;;1.40;;
62543;SDS011;48597;49.030;1.822;2023-04-08T11:44:33;2.08;;;1.40;;
62543;SDS011;48597;49.030;1.822;2023-04-08T11:46:58;3.55;;;1.67;;
62543;SDS011;48597;49.030;1.822;2023-04-08T11:49:25;2.53;;;1.88;;
62543;SDS011;48597;49.030;1.822;2023-04-08T11:51:58;2.75;;;1.80;;
62543;SDS011;48597;49.030;1.822;2023-04-08T11:54:30;1.95;;;1.50;;
62543;SDS011;48597;49.030;1.822;2023-04-08T11:56:57;2.35;;;1.75;;
62543;SDS011;48597;49.030;1.822;2023-04-08T11:59:23;2.25;;;1.80;;
62543;SDS011;48597;49.030;1.822;2023-04-08T12:01:52;3.45;;;1.90;;
62543;SDS011;48597;49.030;1.822;2023-04-08T12:04:18;3.78;;;1.73;;
62543;SDS011;48597;49.030;1.822;2023-04-08T12:06:43;2.22;;;1.80;;
62543;SDS011;48597;49.030;1.822;2023-04-08T12:09:11;3.03;;;1.75;;
62543;SDS011;48597;49.030;1.822;2023-04-08T12:11:37;3.42;;;1.90;;
62543;SDS011;48597;49.030;1.822;2023-04-08T12:14:02;2.17;;;1.63;;
62543;SDS011;48597;49.030;1.822;2023-04-08T12:16:28;2.03;;;1.83;;
62543;SDS011;48597;49.030;1.822;2023-04-08T12:18:54;3.65;;;2.13;;
62543;SDS011;48597;49.030;1.822;2023-04-08T12:21:19;4.47;;;2.60;;
62543;SDS011;48597;49.030;1.822;2023-04-08T12:23:45;3.28;;;2.10;;
62543;SDS011;48597;49.030;1.822;2023-04-08T12:26:10;3.00;;;2.10;;
62543;SDS011;48597;49.030;1.822;2023-04-08T12:28:37;3.97;;;2.30;;
62543;SDS011;48597;49.030;1.822;2023-04-08T12:31:02;3.25;;;2.40;;
62543;SDS011;48597;49.030;1.822;2023-04-08T12:33:28;3.25;;;2.30;;
62543;SDS011;48597;49.030;1.822;2023-04-08T12:35:54;2.70;;;2.00;;
62543;SDS011;48597;49.030;1.822;2023-04-08T12:38:22;2.72;;;2.40;;
62543;SDS011;48597;49.030;1.822;2023-04-08T12:40:47;3.08;;;2.28;;
62543;SDS011;48597;49.030;1.822;2023-04-08T12:43:13;3.40;;;2.55;;
62543;SDS011;48597;49.030;1.822;2023-04-08T12:45:38;2.95;;;2.30;;
62543;SDS011;48597;49.030;1.822;2023-04-08T12:48:03;5.10;;;2.80;;
62543;SDS011;48597;49.030;1.822;2023-04-08T12:50:29;3.85;;;3.05;;
62543;SDS011;48597;49.030;1.822;2023-04-08T12:52:55;4.45;;;2.78;;
62543;SDS011;48597;49.030;1.822;2023-04-08T12:55:20;8.38;;;2.90;;
62543;SDS011;48597;49.030;1.822;2023-04-08T12:57:48;4.20;;;2.90;;
62543;SDS011;48597;49.030;1.822;2023-04-08T13:00:15;3.03;;;2.42;;
62543;SDS011;48597;49.030;1.822;2023-04-08T13:02:40;4.22;;;2.90;;
62543;SDS011;48597;49.030;1.822;2023-04-08T13:05:06;4.32;;;3.08;;
62543;SDS011;48597;49.030;1.822;2023-04-08T13:07:32;4.07;;;2.60;;
62543;SDS011;48597;49.030;1.822;2023-04-08T13:09:57;3.95;;;2.83;;
62543;SDS011;48597;49.030;1.822;2023-04-08T13:12:22;3.35;;;2.72;;
62543;SDS011;48597;49.030;1.822;2023-04-08T13:14:48;3.75;;;3.05;;
62543;SDS011;48597;49.030;1.822;2023-04-08T13:17:13;4.70;;;2.85;;
62543;SDS011;48597;49.030;1.822;2023-04-08T13:19:39;3.45;;;2.45;;
62543;SDS011;48597;49.030;1.822;2023-04-08T13:22:06;3.47;;;2.83;;
62543;SDS011;48597;49.030;1.822;2023-04-08T13:24:31;4.15;;;2.78;;
62543;SDS011;48597;49.030;1.822;2023-04-08T13:26:57;4.25;;;2.92;;
62543;SDS011;48597;49.030;1.822;2023-04-08T13:29:23;4.13;;;2.83;;
62543;SDS011;48597;49.030;1.822;2023-04-08T13:31:48;3.95;;;3.03;;
62543;SDS011;48597;49.030;1.822;2023-04-08T13:34:15;4.00;;;2.90;;
62543;SDS011;48597;49.030;1.822;2023-04-08T13:36:40;3.25;;;2.72;;
62543;SDS011;48597;49.030;1.822;2023-04-08T13:39:06;3.55;;;2.80;;
62543;SDS011;48597;49.030;1.822;2023-04-08T13:41:32;3.83;;;2.75;;
62543;SDS011;48597;49.030;1.822;2023-04-08T13:43:58;4.18;;;2.90;;
62543;SDS011;48597;49.030;1.822;2023-04-08T13:46:24;3.30;;;2.92;;
62543;SDS011;48597;49.030;1.822;2023-04-08T13:48:50;4.18;;;2.95;;
62543;SDS011;48597;49.030;1.822;2023-04-08T13:51:16;5.03;;;2.50;;
62543;SDS011;48597;49.030;1.822;2023-04-08T13:53:41;2.88;;;2.58;;
62543;SDS011;48597;49.030;1.822;2023-04-08T13:56:07;3.97;;;2.42;;
62543;SDS011;48597;49.030;1.822;2023-04-08T13:58:32;3.00;;;2.60;;
62543;SDS011;48597;49.030;1.822;2023-04-08T14:00:58;4.68;;;2.58;;
62543;SDS011;48597;49.030;1.822;2023-04-08T14:03:23;3.30;;;3.00;;
62543;SDS011;48597;49.030;1.822;2023-04-08T14:05:48;3.92;;;2.80;;
62543;SDS011;48597;49.030;1.822;2023-04-08T14:08:15;2.92;;;2.63;;
62543;SDS011;48597;49.030;1.822;2023-04-08T14:10:42;3.50;;;2.88;;
62543;SDS011;48597;49.030;1.822;2023-04-08T14:13:07;3.75;;;2.70;;
62543;SDS011;48597;49.030;1.822;2023-04-08T14:15:33;2.60;;;2.30;;
62543;SDS011;48597;49.030;1.822;2023-04-08T14:17:58;2.78;;;2.50;;
62543;SDS011;48597;49.030;1.822;2023-04-08T14:20:24;4.00;;;2.95;;
62543;SDS011;48597;49.030;1.822;2023-04-08T14:22:50;3.35;;;2.67;;
62543;SDS011;48597;49.030;1.822;2023-04-08T14:25:15;3.13;;;2.83;;
62543;SDS011;48597;49.030;1.822;2023-04-08T14:27:40;3.20;;;2.60;;
62543;SDS011;48597;49.030;1.822;2023-04-08T14:30:06;4.13;;;3.13;;
62543;SDS011;48597;49.030;1.822;2023-04-08T14:32:32;2.45;;;2.25;;
62543;SDS011;48597;49.030;1.822;2023-04-08T14:34:57;3.08;;;2.78;;
62543;SDS011;48597;49.030;1.822;2023-04-08T14:37:23;3.30;;;2.60;;
62543;SDS011;48597;49.030;1.822;2023-04-08T14:39:48;3.92;;;2.83;;
62543;SDS011;48597;49.030;1.822;2023-04-08T14:42:13;3.55;;;2.35;;
62543;SDS011;48597;49.030;1.822;2023-04-08T14:44:40;2.80;;;2.42;;
62543;SDS011;48597;49.030;1.822;2023-04-08T14:47:06;2.50;;;2.30;;
62543;SDS011;48597;49.030;1.822;2023-04-08T14:49:32;3.35;;;2.50;;
62543;SDS011;48597;49.030;1.822;2023-04-08T14:51:57;4.40;;;2.65;;
62543;SDS011;48597;49.030;1.822;2023-04-08T14:54:22;3.03;;;2.72;;
62543;SDS011;48597;49.030;1.822;2023-04-08T14:56:48;2.85;;;2.40;;
62543;SDS011;48597;49.030;1.822;2023-04-08T14:59:13;3.53;;;2.30;;
62543;SDS011;48597;49.030;1.822;2023-04-08T15:01:38;2.60;;;2.40;;
62543;SDS011;48597;49.030;1.822;2023-04-08T15:04:05;4.55;;;2.53;;
62543;SDS011;48597;49.030;1.822;2023-04-08T15:06:30;2.92;;;2.50;;